This is the latest recevied weather packets stored in our database for station/object KN4CCE-13. If no packets are shown the sender has not sent any weather packets the latest 10 day(s).
| Time | Temp. | Humidity | Pressure | Rain* | Wind** | Luminosity | Snow |
|---|---|---|---|---|---|---|---|
| 1777467608 | 16.67° C | 88% | 1014.7 hPa | 0 mm | - | 79 W/m² | - |
| 1777455012 | 13.33° C | 95% | 1014.7 hPa | 0 mm | - | 0 W/m² | - |
| 1777454119 | 13.33° C | 95% | 1014.7 hPa | 0 mm | - | 0 W/m² | - |
| 1777441515 | 13.89° C | 93% | 1015.6 hPa | 0 mm | - | 0 W/m² | - |
| 1777437950 | 13.89° C | 93% | 1016.9 hPa | 0 mm | - | 0 W/m² | - |
| 1777437005 | 13.89° C | 92% | 1017.2 hPa | 0 mm | - | 0 W/m² | - |
| 1777433418 | 14.44° C | 91% | 1017.9 hPa | 0 mm | - | 0 W/m² | - |
| 1777428926 | 15° C | 88% | 1017.9 hPa | 0 mm | - | 0 W/m² | - |
| 1777424424 | 17.22° C | 82% | 1017.1 hPa | 0 mm | - | 0 W/m² | - |
| 1777423528 | 17.22° C | 81% | 1017.1 hPa | 0 mm | - | 0 W/m² | - |
| 1777420812 | 17.78° C | 78% | 1016.2 hPa | 0 mm | - | 0 W/m² | - |
| 1777419908 | 17.78° C | 78% | 1016.1 hPa | 0 mm | - | 11 W/m² | - |
| 1777417213 | 18.33° C | 76% | 1017.2 hPa | 0 mm | - | 25 W/m² | - |
| 1777410031 | 18.89° C | 72% | 1017.7 hPa | 0 mm | - | 202 W/m² | - |
| 1777407319 | 18.33° C | 73% | 1018.3 hPa | 0 mm | - | 181 W/m² | - |
| 1777406426 | 18.33° C | 74% | 1018.4 hPa | 0 mm | - | 109 W/m² | - |
| 1777401013 | 17.78° C | 73% | 1019.5 hPa | 0 mm | - | 366 W/m² | - |
| 1777397406 | 17.22° C | 71% | 1020 hPa | 0 mm | - | 1062 W/m² | - |
| 1777388408 | 14.44° C | 71% | 1020.8 hPa | 0 mm | - | 257 W/m² | - |
| 1777387516 | 14.44° C | 70% | 1021.5 hPa | 0 mm | - | 315 W/m² | - |
| 1777384816 | 12.22° C | 79% | 1023.4 hPa | 0 mm | - | 114 W/m² | - |
| 1777382133 | 11.67° C | 82% | 1024.1 hPa | 0 mm | - | 95 W/m² | - |
| 1777376733 | 10° C | 82% | 1025.3 hPa | 0 mm | - | 65 W/m² | - |
| 1777374927 | 8.89° C | 87% | 1024 hPa | 0 mm | - | 33 W/m² | - |
| 1777370423 | 8.89° C | 80% | 1021.5 hPa | 0 mm | - | 0 W/m² | - |
* Rain latest hour (hover to see other rain measurements)
** Current wind speed in m/s (hover to see current wind gust speed)